Etusivu
METAR-TAF:

METAR-TAF

Lentoasemat :

Heathrow’n lentoasema

Lontoo-Heathrow, Englanti

Leveyspiiri: 51-29N, Pituuspiiri: 000-27W, korkeus merenpinnasta: 24 m

Tämänhetkinen sää

Tämä raportti tehtiin 17 minuuttia sitten, kello 18.50 UTC
Tuuli 3 kn eri suunnista
Lämpötila 18°C
Kosteus 52%
Ilmanpaine 1014 hPa
Näkyvyys 10 km tai enemmän

METAR: EGLL 201850Z AUTO VRB03KT 9999 NCD 18/08 Q1014 NOSIG

Aika: 20:07 (19:07 UTC)

Sääennuste

Tämä raportti tehtiin 2 tuntia ja 15 minuuttia sitten, kello 16.52 UTC
Ennuste voimassa 20. päivästä klo 18 UTC - 21. päivään klo 24 UTC
Tuuli 8 kn pohjoisen/luoteesta
Näkyvyys 10 km tai enemmän
ei pilviä alle 1500 m:ssä eikä cumulonimbus-pilviä

TAF: EGLL 201652Z 2018/2124 33008KT CAVOK

Säähavainnot ja -ennusteet yli 4000 lentoasemalta (METAR- ja TAF-raportit).

Käytössä olevat sääasemat on merkitty karttaan keltaisilla ja punaisilla pisteillä.

Aseta hiiri pisteen päälle nähdäksesi sääaseman nimen.

Klikkaa sitten nähdäksesi säähavainnot ja -ennusteet.

Kartan vaihtaminen: klikkaa mustalla rastilla varustettuja vihreitä pisteitä, niin voit zoomata sisään; viivalla varustettua vihreää pistettä, niin voit zoomata ulos tai vihreitä nuolia, niin pääset viereisille kartoille.


METAR-TAF: